This is the latest recevied weather packets stored in our database for station/object HS2XQB-3. If no packets are shown the sender has not sent any weather packets the latest 10 day(s).
| Time | Temp. | Humidity | Pressure | Rain* | Wind** | Luminosity | Snow |
|---|---|---|---|---|---|---|---|
| 1788150891 | 83° F | 47% | 753.8 mmHg | - | - | 0 W/m² | - |
| 1788149068 | 82° F | 50% | 753.8 mmHg | - | - | 0 W/m² | - |
| 1788147247 | 83° F | 52% | 753.8 mmHg | - | - | 0 W/m² | - |
| 1788145426 | 81° F | 59% | 753.8 mmHg | - | - | 0 W/m² | - |
| 1788143602 | 80° F | 52% | 754.6 mmHg | - | - | 0 W/m² | - |
| 1788141780 | 79° F | 50% | 753.8 mmHg | - | - | 0 W/m² | - |
| 1788139958 | 79° F | 50% | 753.8 mmHg | - | - | 0 W/m² | - |
| 1788138136 | 79° F | 51% | 753.8 mmHg | - | - | 0 W/m² | - |
| 1788136314 | 79° F | 52% | 753.8 mmHg | - | - | 0 W/m² | - |
| 1788134492 | 79° F | 51% | 753.1 mmHg | - | - | 0 W/m² | - |
| 1788132670 | 83° F | 52% | 753.1 mmHg | - | - | 0 W/m² | - |
| 1788130848 | 88° F | 73% | 753.1 mmHg | - | - | 0 W/m² | - |
| 1788129026 | 88° F | 71% | 753.1 mmHg | - | - | 0 W/m² | - |
| 1788127204 | 88° F | 70% | 752.3 mmHg | - | - | 0 W/m² | - |
| 1788125382 | 89° F | 72% | 753.1 mmHg | - | - | 0 W/m² | - |
| 1788123560 | 88° F | 72% | 753.1 mmHg | - | - | 0 W/m² | - |
| 1788121738 | 89° F | 70% | 753.1 mmHg | - | - | 0 W/m² | - |
| 1788119916 | 89° F | 70% | 753.1 mmHg | - | - | 0 W/m² | - |
| 1788118094 | 89° F | 71% | 753.1 mmHg | - | - | 0 W/m² | - |
| 1788116272 | 89° F | 70% | 753.1 mmHg | - | - | 0 W/m² | - |
| 1788114450 | 89° F | 71% | 753.1 mmHg | - | - | 0 W/m² | - |
| 1788112628 | 90° F | 71% | 753.1 mmHg | - | - | 0 W/m² | - |
| 1788110806 | 90° F | 71% | 753.8 mmHg | - | - | 0 W/m² | - |
| 1788108984 | 90° F | 71% | 753.8 mmHg | - | - | 0 W/m² | - |
| 1788107162 | 90° F | 71% | 753.8 mmHg | - | - | 0 W/m² | - |
* Rain since midnight (hover to see other rain measurements)
** Current wind speed in m/s (hover to see current wind gust speed)